createdAt,value
2018-01-06T00:00:09.476Z,88.40
2018-01-06T00:02:36.919Z,88.52
2018-01-06T00:05:04.335Z,88.69
2018-01-06T00:07:31.749Z,88.79
2018-01-06T00:09:59.184Z,89.08
2018-01-06T00:12:26.609Z,89.20
2018-01-06T00:14:54.063Z,89.36
2018-01-06T00:17:21.490Z,89.47
2018-01-06T00:19:48.921Z,89.92
2018-01-06T00:22:16.373Z,90.15
2018-01-06T00:24:43.797Z,90.09
2018-01-06T00:27:11.233Z,90.11
2018-01-06T00:29:38.684Z,89.95
2018-01-06T00:32:06.103Z,90.00
2018-01-06T00:34:33.526Z,90.20
2018-01-06T00:37:00.978Z,90.05
2018-01-06T00:39:28.404Z,89.98
2018-01-06T00:41:55.823Z,89.76
2018-01-06T00:44:23.264Z,89.41
2018-01-06T00:46:50.687Z,88.94
2018-01-06T00:49:18.097Z,88.50
2018-01-06T00:51:45.539Z,88.70
2018-01-06T00:54:12.959Z,88.20
2018-01-06T00:56:40.376Z,88.25
2018-01-06T00:59:07.800Z,88.15
2018-01-06T01:01:35.232Z,88.23
2018-01-06T01:04:02.686Z,88.35
2018-01-06T01:06:30.123Z,88.47
2018-01-06T01:08:57.535Z,88.53
2018-01-06T01:11:24.992Z,88.37
2018-01-06T01:13:52.405Z,88.40
2018-01-06T01:16:19.844Z,88.21
2018-01-06T01:18:47.263Z,88.14
2018-01-06T01:21:14.681Z,88.03
2018-01-06T01:23:42.121Z,88.03
2018-01-06T01:26:09.533Z,87.95
2018-01-06T01:28:36.948Z,88.07
2018-01-06T01:31:04.384Z,88.21
2018-01-06T01:33:31.803Z,88.17
2018-01-06T01:35:59.251Z,88.45
2018-01-06T01:38:26.676Z,88.72
2018-01-06T01:40:54.084Z,88.81
2018-01-06T01:43:21.519Z,88.23
2018-01-06T01:45:48.947Z,88.41
2018-01-06T01:48:16.376Z,88.39
2018-01-06T01:50:43.788Z,88.13
2018-01-06T01:53:11.200Z,88.09
2018-01-06T01:55:38.640Z,87.99
2018-01-06T01:58:06.052Z,87.87
2018-01-06T02:00:33.455Z,87.60
2018-01-06T02:03:00.934Z,87.63
2018-01-06T02:05:28.354Z,87.84
2018-01-06T02:07:55.775Z,87.75
2018-01-06T02:10:23.201Z,87.23
2018-01-06T02:12:50.640Z,87.07
2018-01-06T02:15:18.073Z,86.77
2018-01-06T02:17:45.480Z,86.95
2018-01-06T02:20:12.894Z,86.52
2018-01-06T02:22:40.467Z,86.77
2018-01-06T02:25:07.885Z,86.84
2018-01-06T02:27:35.292Z,87.08
2018-01-06T02:30:02.733Z,87.04
2018-01-06T02:32:30.148Z,87.08
2018-01-06T02:34:57.565Z,87.02
2018-01-06T02:37:24.993Z,86.82
2018-01-06T02:39:52.420Z,86.79
2018-01-06T02:42:19.832Z,86.99
2018-01-06T02:44:47.264Z,87.07
2018-01-06T02:47:14.696Z,87.25
2018-01-06T02:49:42.120Z,87.37
2018-01-06T02:52:09.594Z,87.49
2018-01-06T02:54:36.982Z,87.83
2018-01-06T02:57:04.409Z,87.97
2018-01-06T02:59:31.824Z,88.19
2018-01-06T03:01:59.258Z,88.18
2018-01-06T03:04:26.684Z,88.30
2018-01-06T03:06:54.120Z,88.21
2018-01-06T03:09:21.533Z,88.46
2018-01-06T03:11:48.965Z,88.60
2018-01-06T03:14:16.397Z,88.64
2018-01-06T03:16:43.804Z,88.76
2018-01-06T03:19:11.238Z,88.92
2018-01-06T03:21:38.648Z,88.99
2018-01-06T03:24:06.053Z,89.10
2018-01-06T03:26:33.504Z,89.26
2018-01-06T03:29:00.924Z,89.21
2018-01-06T03:31:28.339Z,89.32
2018-01-06T03:33:55.811Z,89.33
2018-01-06T03:36:23.221Z,89.24
2018-01-06T03:38:50.639Z,89.37
2018-01-06T03:41:18.065Z,89.55
2018-01-06T03:43:45.481Z,89.75
2018-01-06T03:46:12.924Z,89.81
2018-01-06T03:48:40.341Z,89.90
2018-01-06T03:51:07.766Z,89.88
2018-01-06T03:53:36.076Z,89.87
2018-01-06T03:56:03.486Z,89.99
2018-01-06T03:58:30.921Z,90.17
2018-01-06T04:00:58.336Z,90.08
2018-01-06T04:03:25.745Z,90.04
2018-01-06T04:05:53.184Z,90.04
2018-01-06T04:08:20.608Z,90.09
2018-01-06T04:10:48.031Z,90.26
2018-01-06T04:13:15.466Z,90.25
2018-01-06T04:15:42.881Z,90.33
2018-01-06T04:18:10.297Z,90.40
2018-01-06T04:20:37.736Z,90.42
2018-01-06T04:23:05.168Z,90.47
2018-01-06T04:25:32.574Z,90.63
2018-01-06T04:28:00.002Z,90.71
2018-01-06T04:30:27.412Z,90.60
2018-01-06T04:32:54.823Z,90.78
2018-01-06T04:35:22.257Z,90.72
2018-01-06T04:37:49.668Z,90.84
2018-01-06T04:40:17.116Z,90.94
2018-01-06T04:42:44.529Z,90.89
2018-01-06T04:45:11.940Z,91.08
2018-01-06T04:47:44.263Z,91.05
2018-01-06T04:50:11.723Z,91.06
2018-01-06T04:52:39.111Z,91.09
2018-01-06T04:55:06.546Z,91.18
2018-01-06T04:57:33.971Z,91.16
2018-01-06T05:00:01.394Z,91.10
2018-01-06T05:02:28.857Z,91.05
2018-01-06T05:04:56.273Z,90.92
2018-01-06T05:07:23.701Z,91.00
2018-01-06T05:09:51.133Z,90.75
2018-01-06T05:12:18.551Z,90.46
2018-01-06T05:14:45.985Z,90.10
2018-01-06T05:17:13.400Z,90.02
2018-01-06T05:19:40.816Z,89.96
2018-01-06T05:22:08.306Z,89.98
2018-01-06T05:24:35.715Z,89.82
2018-01-06T05:27:03.136Z,89.55
2018-01-06T05:29:30.567Z,89.39
2018-01-06T05:31:57.984Z,89.13
2018-01-06T05:34:25.402Z,89.16
2018-01-06T05:36:52.833Z,89.40
2018-01-06T05:39:20.252Z,89.66
2018-01-06T05:44:21.557Z,90.20
2018-01-06T05:46:48.972Z,90.49
2018-01-06T05:49:16.392Z,90.75
2018-01-06T05:51:43.860Z,90.87
2018-01-06T05:54:11.283Z,90.96
2018-01-06T05:56:38.712Z,90.99
2018-01-06T05:59:06.148Z,91.01
2018-01-06T06:01:33.556Z,91.12
2018-01-06T06:04:01.008Z,91.20
2018-01-06T06:06:28.441Z,91.32
2018-01-06T06:08:55.862Z,91.30
2018-01-06T06:11:23.817Z,91.27
2018-01-06T06:13:51.232Z,91.33
2018-01-06T06:16:18.664Z,91.46
2018-01-06T06:18:46.120Z,91.45
2018-01-06T06:21:13.549Z,91.49
2018-01-06T06:23:40.972Z,91.54
2018-01-06T06:26:08.436Z,91.40
2018-01-06T06:28:35.865Z,91.48
2018-01-06T06:31:03.293Z,91.47
2018-01-06T06:33:30.733Z,91.47
2018-01-06T06:35:58.149Z,91.45
2018-01-06T06:38:25.573Z,91.48
2018-01-06T06:40:53.025Z,91.44
2018-01-06T06:43:20.476Z,91.36
2018-01-06T06:45:47.893Z,91.19
2018-01-06T06:48:15.577Z,91.25
2018-01-06T06:50:43.010Z,91.30
2018-01-06T06:53:10.434Z,91.36
2018-01-06T06:55:37.873Z,91.18
2018-01-06T06:58:05.294Z,91.24
2018-01-06T07:00:32.739Z,90.97
2018-01-06T07:03:00.172Z,90.84
2018-01-06T07:05:27.610Z,90.74
2018-01-06T07:07:55.049Z,90.60
2018-01-06T07:10:27.336Z,90.46
2018-01-06T07:12:54.764Z,90.45
2018-01-06T07:15:22.239Z,90.47
2018-01-06T07:17:49.681Z,90.45
2018-01-06T07:20:17.104Z,90.54
2018-01-06T07:22:44.554Z,90.67
2018-01-06T07:25:11.972Z,90.59
2018-01-06T07:27:39.392Z,90.57
2018-01-06T07:30:06.833Z,90.54
2018-01-06T07:32:34.252Z,90.59
2018-01-06T07:35:01.717Z,90.57
2018-01-06T07:37:29.165Z,90.64
2018-01-06T07:39:56.588Z,90.53
2018-01-06T07:42:24.016Z,90.45
2018-01-06T07:44:51.439Z,90.42
2018-01-06T07:47:18.855Z,90.41
2018-01-06T07:49:46.326Z,90.43
2018-01-06T07:52:13.742Z,90.23
2018-01-06T07:54:41.161Z,90.10
2018-01-06T07:57:08.616Z,90.11
2018-01-06T07:59:36.063Z,89.81
2018-01-06T08:02:03.485Z,89.60
2018-01-06T08:04:30.928Z,89.55
2018-01-06T08:06:58.344Z,89.65
2018-01-06T08:09:25.788Z,89.71
2018-01-06T08:11:53.232Z,89.57
2018-01-06T08:14:20.651Z,89.34
2018-01-06T08:16:48.074Z,89.19
2018-01-06T08:19:15.512Z,89.21
2018-01-06T08:21:42.949Z,89.03
2018-01-06T08:24:10.368Z,89.07
2018-01-06T08:26:37.806Z,88.81
2018-01-06T08:29:05.260Z,88.68
2018-01-06T08:31:32.668Z,88.53
2018-01-06T08:34:00.098Z,88.47
2018-01-06T08:36:27.524Z,88.15
2018-01-06T08:38:55.072Z,88.08
2018-01-06T08:41:22.490Z,87.93
2018-01-06T08:43:49.908Z,87.70
2018-01-06T08:46:17.354Z,87.50
2018-01-06T08:48:44.776Z,87.24
2018-01-06T08:51:12.208Z,87.02
2018-01-06T08:53:39.629Z,86.87
2018-01-06T08:56:07.048Z,86.57
2018-01-06T08:58:34.488Z,86.41
2018-01-06T09:01:01.918Z,86.13
2018-01-06T09:03:29.337Z,85.90
2018-01-06T09:05:56.780Z,85.49
2018-01-06T09:08:24.193Z,85.29
2018-01-06T09:10:51.612Z,85.17
2018-01-06T09:13:19.067Z,84.87
2018-01-06T09:15:46.497Z,84.80
2018-01-06T09:18:13.925Z,84.71
2018-01-06T09:20:41.366Z,84.50
2018-01-06T09:23:08.795Z,84.22
2018-01-06T09:25:36.260Z,84.01
2018-01-06T09:28:03.684Z,83.87
2018-01-06T09:30:31.099Z,83.25
2018-01-06T09:32:58.536Z,83.13
2018-01-06T09:35:25.978Z,82.97
2018-01-06T09:37:53.403Z,82.72
2018-01-06T09:40:20.853Z,82.75
2018-01-06T09:42:48.282Z,82.87
2018-01-06T09:45:15.757Z,83.08
2018-01-06T09:47:43.197Z,83.48
2018-01-06T09:50:10.660Z,83.39
2018-01-06T09:52:38.081Z,83.59
2018-01-06T09:55:05.522Z,83.90
2018-01-06T09:57:32.953Z,84.01
2018-01-06T10:00:00.373Z,83.80
2018-01-06T10:02:27.805Z,83.77
2018-01-06T10:04:55.218Z,83.82
2018-01-06T10:07:22.640Z,83.66
2018-01-06T10:09:50.199Z,83.77
2018-01-06T10:12:17.683Z,83.57
2018-01-06T10:14:45.080Z,83.79
2018-01-06T10:17:12.535Z,83.50
2018-01-06T10:19:39.978Z,83.13
2018-01-06T10:22:07.398Z,83.09
2018-01-06T10:24:34.831Z,83.15
2018-01-06T10:27:02.263Z,83.42
2018-01-06T10:29:29.683Z,82.93
2018-01-06T10:31:57.130Z,82.78
2018-01-06T10:34:24.621Z,82.34
2018-01-06T10:36:52.046Z,82.38
2018-01-06T10:39:19.473Z,81.84
2018-01-06T10:41:46.900Z,81.76
2018-01-06T10:44:14.353Z,81.38
2018-01-06T10:46:41.780Z,81.07
2018-01-06T10:49:09.218Z,80.77
2018-01-06T10:51:36.672Z,80.30
2018-01-06T10:54:04.097Z,79.82
2018-01-06T10:56:31.529Z,79.67
2018-01-06T10:58:58.969Z,79.50
2018-01-06T11:01:32.196Z,79.68
2018-01-06T11:03:59.667Z,79.23
2018-01-06T11:06:27.080Z,79.49
2018-01-06T11:08:54.540Z,79.98
2018-01-06T11:11:21.973Z,80.51
2018-01-06T11:13:49.392Z,80.81
2018-01-06T11:16:16.833Z,81.30
2018-01-06T11:18:44.281Z,81.22
2018-01-06T11:21:12.124Z,81.18
2018-01-06T11:23:39.563Z,81.34
2018-01-06T11:26:07.006Z,81.50
2018-01-06T11:28:34.432Z,81.36
2018-01-06T11:31:01.891Z,80.89
2018-01-06T11:33:29.335Z,81.09
2018-01-06T11:35:56.758Z,80.76
2018-01-06T11:38:24.200Z,80.76
2018-01-06T11:40:51.616Z,80.12
2018-01-06T11:43:19.052Z,80.43
2018-01-06T11:45:46.497Z,80.29
2018-01-06T11:48:13.944Z,80.24
2018-01-06T11:50:41.368Z,80.16
2018-01-06T11:53:08.791Z,79.76
2018-01-06T11:55:36.228Z,79.64
2018-01-06T11:58:03.672Z,79.64
2018-01-06T12:00:31.103Z,79.63
2018-01-06T12:02:58.556Z,79.44
2018-01-06T12:05:25.991Z,79.37
2018-01-06T12:07:53.412Z,79.41
2018-01-06T12:10:20.865Z,78.95
2018-01-06T12:12:48.282Z,78.71
2018-01-06T12:15:15.728Z,78.93
2018-01-06T12:17:43.180Z,79.02
2018-01-06T12:20:10.612Z,79.34
2018-01-06T12:22:38.036Z,79.48
2018-01-06T12:25:05.472Z,79.06
2018-01-06T12:27:32.904Z,79.29
2018-01-06T12:30:00.352Z,79.20
2018-01-06T12:32:27.857Z,79.01
2018-01-06T12:34:55.281Z,78.41
2018-01-06T12:37:22.723Z,78.73
2018-01-06T12:39:50.148Z,78.10
2018-01-06T12:42:17.585Z,77.96
2018-01-06T12:44:45.048Z,77.40
2018-01-06T12:47:12.470Z,77.31
2018-01-06T12:49:39.890Z,77.47
2018-01-06T12:52:07.321Z,77.70
2018-01-06T12:54:34.734Z,77.22
2018-01-06T12:57:02.199Z,77.19
2018-01-06T12:59:29.626Z,77.31
2018-01-06T13:01:57.051Z,77.47
2018-01-06T13:04:24.481Z,77.24
2018-01-06T13:06:52.005Z,76.94
2018-01-06T13:09:19.426Z,76.45
2018-01-06T13:11:46.916Z,76.59
2018-01-06T13:14:14.376Z,76.38
2018-01-06T13:16:41.789Z,76.39
2018-01-06T13:19:09.244Z,76.41
2018-01-06T13:21:36.728Z,76.62
2018-01-06T13:24:04.137Z,76.17
2018-01-06T13:26:31.548Z,77.75
2018-01-06T13:28:58.994Z,75.58
2018-01-06T13:31:26.405Z,76.40
2018-01-06T13:33:53.843Z,75.40
2018-01-06T13:36:21.285Z,74.43
2018-01-06T13:38:48.737Z,74.89
2018-01-06T13:41:16.152Z,73.07
2018-01-06T13:43:43.602Z,73.64
2018-01-06T13:46:11.113Z,74.71
2018-01-06T13:48:38.523Z,75.29
2018-01-06T13:51:06.133Z,75.71
2018-01-06T13:53:33.544Z,75.78
2018-01-06T13:56:00.960Z,75.96
2018-01-06T13:58:28.493Z,76.39
2018-01-06T14:00:55.935Z,76.47
2018-01-06T14:03:23.356Z,76.73
2018-01-06T14:05:50.780Z,76.82
2018-01-06T14:08:18.207Z,76.66
2018-01-06T14:10:45.681Z,77.08
2018-01-06T14:13:13.140Z,76.68
2018-01-06T14:15:40.612Z,76.67
2018-01-06T14:18:08.016Z,76.00
2018-01-06T14:20:35.460Z,76.33
2018-01-06T14:23:02.879Z,76.40
2018-01-06T14:25:30.287Z,76.41
2018-01-06T14:27:57.756Z,76.80
2018-01-06T14:30:25.164Z,77.15
2018-01-06T14:32:52.703Z,76.96
2018-01-06T14:35:20.180Z,76.74
2018-01-06T14:37:47.628Z,76.77
2018-01-06T14:40:15.062Z,76.25
2018-01-06T14:42:42.715Z,76.54
2018-01-06T14:45:10.134Z,76.32
2018-01-06T14:47:37.569Z,76.76
2018-01-06T14:50:05.221Z,76.56
2018-01-06T14:52:32.595Z,76.81
2018-01-06T14:55:00.016Z,76.85
2018-01-06T14:57:27.479Z,76.70
2018-01-06T14:59:54.888Z,76.96
2018-01-06T15:02:22.297Z,77.15
2018-01-06T15:04:49.720Z,76.69
2018-01-06T15:07:17.277Z,76.98
2018-01-06T15:09:44.706Z,77.09
2018-01-06T15:12:12.119Z,76.88
2018-01-06T15:14:39.545Z,77.80
2018-01-06T15:17:07.020Z,76.62
2018-01-06T15:19:34.436Z,75.82
2018-01-06T15:22:01.875Z,76.14
2018-01-06T15:24:29.299Z,76.21
2018-01-06T15:26:56.730Z,76.39
2018-01-06T15:29:24.180Z,76.53
2018-01-06T15:31:51.613Z,76.73
2018-01-06T15:34:19.117Z,77.06
2018-01-06T15:36:46.545Z,76.81
2018-01-06T15:39:13.970Z,76.90
2018-01-06T15:41:41.384Z,77.13
2018-01-06T15:44:08.826Z,77.08
2018-01-06T15:46:36.310Z,76.86
2018-01-06T15:49:03.725Z,77.33
2018-01-06T15:51:31.153Z,76.98
2018-01-06T15:53:58.598Z,76.85
2018-01-06T15:56:26.131Z,76.83
2018-01-06T15:58:53.579Z,76.82
2018-01-06T16:01:21.035Z,76.91
2018-01-06T16:03:48.491Z,77.00
2018-01-06T16:06:15.903Z,76.92
2018-01-06T16:08:43.318Z,77.10
2018-01-06T16:11:10.770Z,76.96
2018-01-06T16:13:38.186Z,77.40
2018-01-06T16:16:05.631Z,77.22
2018-01-06T16:18:33.047Z,77.29
2018-01-06T16:21:00.474Z,77.32
2018-01-06T16:23:27.904Z,77.73
2018-01-06T16:25:55.338Z,77.75
2018-01-06T16:28:22.864Z,77.92
2018-01-06T16:30:50.296Z,78.00
2018-01-06T16:33:17.707Z,78.14
2018-01-06T16:35:45.144Z,78.18
2018-01-06T16:38:12.571Z,78.51
2018-01-06T16:40:39.994Z,78.64
2018-01-06T16:43:07.444Z,79.20
2018-01-06T16:45:35.143Z,79.30
2018-01-06T16:48:02.568Z,79.64
2018-01-06T16:50:29.995Z,79.39
2018-01-06T16:52:57.413Z,79.48
2018-01-06T16:55:24.826Z,79.53
2018-01-06T16:57:52.256Z,79.45
2018-01-06T17:00:19.679Z,79.04
2018-01-06T17:02:47.134Z,78.91
2018-01-06T17:05:14.592Z,78.92
2018-01-06T17:07:42.059Z,78.63
2018-01-06T17:10:09.484Z,78.83
2018-01-06T17:12:36.918Z,78.68
2018-01-06T17:15:04.431Z,78.83
2018-01-06T17:17:31.876Z,78.57
2018-01-06T17:19:59.291Z,78.65
2018-01-06T17:22:26.808Z,78.46
2018-01-06T17:24:54.220Z,78.36
2018-01-06T17:27:21.629Z,78.45
2018-01-06T17:29:49.164Z,78.39
2018-01-06T17:32:16.620Z,78.28
2018-01-06T17:34:44.096Z,78.01
2018-01-06T17:37:11.522Z,77.83
2018-01-06T17:39:39.015Z,77.86
2018-01-06T17:42:06.427Z,78.16
2018-01-06T17:44:33.875Z,78.32
2018-01-06T17:47:01.797Z,78.10
2018-01-06T17:49:29.214Z,78.19
2018-01-06T17:51:56.644Z,78.31
2018-01-06T17:54:24.054Z,79.00
2018-01-06T17:56:51.491Z,78.72
2018-01-06T17:59:18.952Z,79.03
2018-01-06T18:01:46.424Z,78.86
2018-01-06T18:04:13.848Z,78.76
2018-01-06T18:06:41.263Z,78.28
2018-01-06T18:09:08.692Z,78.22
2018-01-06T18:11:36.171Z,78.44
2018-01-06T18:14:03.599Z,78.95
2018-01-06T18:16:31.024Z,79.40
2018-01-06T18:18:58.522Z,79.87
2018-01-06T18:21:25.979Z,80.62
2018-01-06T18:23:53.399Z,80.26
2018-01-06T18:26:20.834Z,80.76
2018-01-06T18:28:48.248Z,80.87
2018-01-06T18:31:15.707Z,80.97
2018-01-06T18:33:43.147Z,81.16
2018-01-06T18:36:10.627Z,81.00
2018-01-06T18:38:38.044Z,81.30
2018-01-06T18:41:05.470Z,81.29
2018-01-06T18:43:32.893Z,81.49
2018-01-06T18:46:00.312Z,81.53
2018-01-06T18:48:27.768Z,81.57
2018-01-06T18:50:55.188Z,81.61
2018-01-06T18:53:22.716Z,82.15
2018-01-06T18:55:50.149Z,82.13
2018-01-06T18:58:17.578Z,81.73
2018-01-06T19:00:44.987Z,81.74
2018-01-06T19:03:12.432Z,81.41
2018-01-06T19:05:39.854Z,81.44
2018-01-06T19:08:07.355Z,81.20
2018-01-06T19:10:34.770Z,81.32
2018-01-06T19:13:02.266Z,80.96
2018-01-06T19:15:29.690Z,81.41
2018-01-06T19:17:58.071Z,80.65
2018-01-06T19:20:25.482Z,80.93
2018-01-06T19:22:52.942Z,81.09
2018-01-06T19:25:20.416Z,81.26
2018-01-06T19:27:47.795Z,81.53
2018-01-06T19:30:15.216Z,81.85
2018-01-06T19:32:42.646Z,81.65
2018-01-06T19:35:10.083Z,81.61
2018-01-06T19:37:37.560Z,81.51
2018-01-06T19:40:04.965Z,81.47
2018-01-06T19:42:32.382Z,81.49
2018-01-06T19:44:59.840Z,81.46
2018-01-06T19:47:27.389Z,81.54
2018-01-06T19:49:54.801Z,81.53
2018-01-06T19:52:22.208Z,81.81
2018-01-06T19:54:49.659Z,82.01
2018-01-06T19:57:17.103Z,82.05
2018-01-06T19:59:44.532Z,82.56
2018-01-06T20:02:11.947Z,82.62
2018-01-06T20:04:39.351Z,82.65
2018-01-06T20:07:06.885Z,82.97
2018-01-06T20:09:34.295Z,82.78
2018-01-06T20:12:01.706Z,82.20
2018-01-06T20:14:29.144Z,82.34
2018-01-06T20:16:56.564Z,82.51
2018-01-06T20:19:24.041Z,83.19
2018-01-06T20:21:51.473Z,82.82
2018-01-06T20:24:18.898Z,82.81
2018-01-06T20:26:46.322Z,82.85
2018-01-06T20:29:13.875Z,83.03
2018-01-06T20:31:41.265Z,83.51
2018-01-06T20:34:08.688Z,82.95
2018-01-06T20:36:36.123Z,83.32
2018-01-06T20:39:03.559Z,83.19
2018-01-06T20:41:30.972Z,82.90
2018-01-06T20:43:58.397Z,83.08
2018-01-06T20:46:25.843Z,83.22
2018-01-06T20:48:53.271Z,83.43
2018-01-06T20:51:20.739Z,83.50
2018-01-06T20:53:48.226Z,82.96
2018-01-06T20:56:15.641Z,82.99
2018-01-06T20:58:43.066Z,82.77
2018-01-06T21:01:10.484Z,82.46
2018-01-06T21:03:37.898Z,82.44
2018-01-06T21:06:05.338Z,82.39
2018-01-06T21:08:32.822Z,82.32
2018-01-06T21:11:00.231Z,82.45
2018-01-06T21:13:27.750Z,82.31
2018-01-06T21:15:55.155Z,82.26
2018-01-06T21:18:22.619Z,82.43
2018-01-06T21:20:50.047Z,82.62
2018-01-06T21:23:17.455Z,82.81
2018-01-06T21:25:44.929Z,83.26
2018-01-06T21:28:12.400Z,83.40
2018-01-06T21:30:39.827Z,83.21
2018-01-06T21:33:07.299Z,83.22
2018-01-06T21:35:34.758Z,83.67
2018-01-06T21:38:02.172Z,83.88
2018-01-06T21:40:29.691Z,84.13
2018-01-06T21:42:57.101Z,84.03
2018-01-06T21:45:24.536Z,84.03
2018-01-06T21:47:51.976Z,84.17
2018-01-06T21:50:19.438Z,84.53
2018-01-06T21:52:46.875Z,84.83
2018-01-06T21:55:14.286Z,85.05
2018-01-06T21:57:41.722Z,85.44
2018-01-06T22:00:09.148Z,85.53
2018-01-06T22:02:36.562Z,85.71
2018-01-06T22:05:03.987Z,85.81
2018-01-06T22:07:31.532Z,85.88
2018-01-06T22:09:59.360Z,86.01
2018-01-06T22:12:26.827Z,86.22
2018-01-06T22:14:54.259Z,86.23
2018-01-06T22:17:21.861Z,86.09
2018-01-06T22:19:49.559Z,86.08
2018-01-06T22:22:17.249Z,86.35
2018-01-06T22:24:44.839Z,86.28
2018-01-06T22:27:12.307Z,86.38
2018-01-06T22:29:39.735Z,86.51
2018-01-06T22:32:07.161Z,86.64
2018-01-06T22:34:34.594Z,86.46
2018-01-06T22:37:02.020Z,86.72
2018-01-06T22:39:29.436Z,86.90
2018-01-06T22:41:56.871Z,86.53
2018-01-06T22:44:24.293Z,86.25
2018-01-06T22:46:51.750Z,86.10
2018-01-06T22:49:19.211Z,85.65
2018-01-06T22:51:46.626Z,85.51
2018-01-06T22:54:14.051Z,84.92
2018-01-06T22:56:41.470Z,84.80
2018-01-06T22:59:08.882Z,84.53
2018-01-06T23:01:36.300Z,84.45
2018-01-06T23:04:03.730Z,84.41
2018-01-06T23:06:31.184Z,84.33
2018-01-06T23:08:58.604Z,84.55
2018-01-06T23:11:26.008Z,83.81
2018-01-06T23:13:53.445Z,84.24
2018-01-06T23:16:20.903Z,84.03
2018-01-06T23:18:48.401Z,83.71
2018-01-06T23:21:15.807Z,83.95
2018-01-06T23:23:43.210Z,83.21
2018-01-06T23:26:10.618Z,82.73
2018-01-06T23:28:38.085Z,83.14
2018-01-06T23:31:05.563Z,81.90
2018-01-06T23:33:32.975Z,80.98
2018-01-06T23:36:00.400Z,80.69
2018-01-06T23:38:27.824Z,80.40
2018-01-06T23:40:55.294Z,79.69
2018-01-06T23:43:22.700Z,80.13
2018-01-06T23:45:50.126Z,80.24
2018-01-06T23:48:17.539Z,79.28
2018-01-06T23:50:44.953Z,79.29
2018-01-06T23:53:12.379Z,79.17
2018-01-06T23:55:39.788Z,79.39
2018-01-06T23:58:07.273Z,79.68
